VKG1118 EKCH-LEPA
Flight info
| Callsign | VKG1118 |
|---|---|
| Flight time | 2h 25m |
| Altitude | 36000 |
| Route | NEXEN T503 GIMRU DCT MICOS DCT WRB DCT XAROL DCT BOMBI DCT GIGET DCT ABUKA DCT KRH DCT NATOR/N0447F370 DCT LUTIX DCT BENOT DCT NEMOS DCT GEVEA DCT INCUS DCT BALSI DCT RETNO DCT TUPOX DCT MTG DCT DIVKO DCT VATIR N852 VERSO L129 LUNIK |
| Aircraft | A321/M-SDE3FGHIRWY/LB1 |
Departure
| Time | 2026-04-22 11:51 |
|---|---|
| Airport | Copenhagen Kastrup Airport (EKCH) |
Arrival
| Time | 2026-04-22 14:16 |
|---|---|
| Airport | Palma de Mallorca Airport (LEPA) |
| Time | Latitude | Longitude | Altitude | Speed | Heading |
|---|---|---|---|---|---|
| 2026-04-22 11:24 | 55.62878 | 12.63998 | 24 ft | 0 kts | 12° |
| 2026-04-22 11:37 | 55.62876 | 12.63997 | 25 ft | 2 kts | 12° |
| 2026-04-22 11:37 | 55.62858 | 12.63991 | 25 ft | 3 kts | 12° |
| 2026-04-22 11:38 | 55.62840 | 12.63985 | 27 ft | 3 kts | 24° |
| 2026-04-22 11:38 | 55.62829 | 12.63971 | 25 ft | 3 kts | 87° |
| 2026-04-22 11:38 | 55.62834 | 12.63920 | 28 ft | 3 kts | 104° |
| 2026-04-22 11:39 | 55.62839 | 12.63886 | 25 ft | 2 kts | 104° |
| 2026-04-22 11:39 | 55.62840 | 12.63874 | 25 ft | 0 kts | 104° |
| 2026-04-22 11:42 | 55.62839 | 12.63885 | 25 ft | 5 kts | 104° |
| 2026-04-22 11:42 | 55.62810 | 12.63958 | 25 ft | 7 kts | 155° |
| 2026-04-22 11:43 | 55.62765 | 12.63940 | 24 ft | 8 kts | 211° |
| 2026-04-22 11:43 | 55.62702 | 12.63871 | 26 ft | 11 kts | 212° |
| 2026-04-22 11:43 | 55.62639 | 12.63802 | 26 ft | 10 kts | 208° |
| 2026-04-22 11:43 | 55.62599 | 12.63776 | 24 ft | 2 kts | 192° |
| 2026-04-22 11:44 | 55.62598 | 12.63776 | 24 ft | 0 kts | 192° |
| 2026-04-22 11:44 | 55.62575 | 12.63769 | 24 ft | 9 kts | 186° |
| 2026-04-22 11:44 | 55.62491 | 12.63798 | 23 ft | 13 kts | 156° |
| 2026-04-22 11:44 | 55.62421 | 12.63905 | 21 ft | 13 kts | 123° |
| 2026-04-22 11:45 | 55.62371 | 12.64040 | 21 ft | 14 kts | 123° |
| 2026-04-22 11:45 | 55.62308 | 12.64212 | 22 ft | 19 kts | 123° |
| 2026-04-22 11:45 | 55.62237 | 12.64406 | 22 ft | 18 kts | 123° |
| 2026-04-22 11:45 | 55.62179 | 12.64558 | 25 ft | 13 kts | 123° |
| 2026-04-22 11:46 | 55.62120 | 12.64649 | 24 ft | 14 kts | 180° |
| 2026-04-22 11:46 | 55.62006 | 12.64537 | 24 ft | 20 kts | 208° |
| 2026-04-22 11:46 | 55.61874 | 12.64519 | 24 ft | 19 kts | 170° |
| 2026-04-22 11:46 | 55.61751 | 12.64558 | 24 ft | 17 kts | 172° |
| 2026-04-22 11:47 | 55.61641 | 12.64523 | 25 ft | 16 kts | 208° |
| 2026-04-22 11:47 | 55.61527 | 12.64394 | 25 ft | 24 kts | 213° |
| 2026-04-22 11:47 | 55.61387 | 12.64232 | 25 ft | 24 kts | 213° |
| 2026-04-22 11:47 | 55.61252 | 12.64075 | 24 ft | 23 kts | 213° |
| 2026-04-22 11:48 | 55.61119 | 12.63925 | 24 ft | 23 kts | 212° |
| 2026-04-22 11:48 | 55.60987 | 12.63772 | 26 ft | 22 kts | 213° |
| 2026-04-22 11:48 | 55.60859 | 12.63625 | 24 ft | 21 kts | 213° |
| 2026-04-22 11:48 | 55.60725 | 12.63475 | 24 ft | 24 kts | 213° |
| 2026-04-22 11:49 | 55.60595 | 12.63298 | 24 ft | 23 kts | 221° |
| 2026-04-22 11:49 | 55.60484 | 12.63131 | 24 ft | 17 kts | 210° |
| 2026-04-22 11:49 | 55.60394 | 12.63181 | 24 ft | 14 kts | 131° |
| 2026-04-22 11:49 | 55.60339 | 12.63292 | 29 ft | 9 kts | 126° |
| 2026-04-22 11:50 | 55.60358 | 12.63373 | 30 ft | 7 kts | 42° |
| 2026-04-22 11:50 | 55.60413 | 12.63458 | 25 ft | 23 kts | 40° |
| 2026-04-22 11:50 | 55.60724 | 12.63939 | 27 ft | 92 kts | 41° |
| 2026-04-22 11:50 | 55.61350 | 12.64907 | 28 ft | 145 kts | 41° |
| 2026-04-22 11:51 | 55.62195 | 12.66228 | 227 ft | 167 kts | 37° |
| 2026-04-22 11:51 | 55.63034 | 12.67573 | 941 ft | 162 kts | 34° |
| 2026-04-22 11:51 | 55.63878 | 12.68889 | 1614 ft | 161 kts | 36° |
| 2026-04-22 11:51 | 55.64748 | 12.70227 | 2049 ft | 175 kts | 36° |
| 2026-04-22 11:52 | 55.65732 | 12.71704 | 2302 ft | 196 kts | 34° |
| 2026-04-22 11:52 | 55.66729 | 12.73551 | 2472 ft | 226 kts | 56° |
| 2026-04-22 11:52 | 55.67126 | 12.76427 | 2781 ft | 259 kts | 89° |
| 2026-04-22 11:52 | 55.66604 | 12.79572 | 3502 ft | 277 kts | 118° |
| 2026-04-22 11:53 | 55.65263 | 12.82077 | 4281 ft | 287 kts | 147° |
| 2026-04-22 11:53 | 55.63393 | 12.83303 | 5120 ft | 290 kts | 174° |
| 2026-04-22 11:53 | 55.61393 | 12.83048 | 5941 ft | 290 kts | 193° |
| 2026-04-22 11:53 | 55.59397 | 12.82436 | 6757 ft | 293 kts | 191° |
| 2026-04-22 11:54 | 55.58064 | 12.82024 | 7257 ft | 294 kts | 195° |
| 2026-04-22 11:54 | 55.56199 | 12.80582 | 7980 ft | 294 kts | 219° |
| 2026-04-22 11:54 | 55.54655 | 12.78235 | 8709 ft | 295 kts | 225° |
| 2026-04-22 11:54 | 55.53128 | 12.75772 | 9464 ft | 298 kts | 225° |
| 2026-04-22 11:55 | 55.51590 | 12.73286 | 10206 ft | 302 kts | 225° |
| 2026-04-22 11:55 | 55.50012 | 12.70730 | 10578 ft | 318 kts | 225° |
| 2026-04-22 11:55 | 55.48321 | 12.67983 | 10728 ft | 341 kts | 225° |
| 2026-04-22 11:55 | 55.46535 | 12.65097 | 11092 ft | 355 kts | 224° |
| 2026-04-22 11:56 | 55.44694 | 12.62144 | 11713 ft | 360 kts | 224° |
| 2026-04-22 11:56 | 55.42829 | 12.59169 | 12368 ft | 364 kts | 224° |
| 2026-04-22 11:56 | 55.40942 | 12.56160 | 13019 ft | 368 kts | 223° |
| 2026-04-22 11:56 | 55.39031 | 12.53117 | 13683 ft | 372 kts | 223° |
| 2026-04-22 11:57 | 55.37099 | 12.50048 | 14295 ft | 377 kts | 223° |
| 2026-04-22 11:57 | 55.35145 | 12.46941 | 14903 ft | 380 kts | 223° |
| 2026-04-22 11:57 | 55.33176 | 12.43811 | 15507 ft | 384 kts | 223° |
| 2026-04-22 11:57 | 55.31187 | 12.40653 | 16103 ft | 387 kts | 223° |
| 2026-04-22 11:58 | 55.29184 | 12.37471 | 16705 ft | 390 kts | 222° |
| 2026-04-22 11:58 | 55.27165 | 12.34269 | 17289 ft | 393 kts | 222° |
| 2026-04-22 11:58 | 55.25123 | 12.31038 | 17882 ft | 397 kts | 222° |
| 2026-04-22 11:58 | 55.23064 | 12.27785 | 18481 ft | 400 kts | 222° |
| 2026-04-22 11:59 | 55.20989 | 12.24515 | 18990 ft | 403 kts | 221° |
| 2026-04-22 11:59 | 55.18896 | 12.21219 | 19472 ft | 406 kts | 221° |
| 2026-04-22 11:59 | 55.16790 | 12.17910 | 19998 ft | 409 kts | 221° |
| 2026-04-22 11:59 | 55.14668 | 12.14580 | 20487 ft | 411 kts | 221° |
| 2026-04-22 12:00 | 55.12529 | 12.11231 | 20978 ft | 414 kts | 221° |
| 2026-04-22 12:00 | 55.10373 | 12.07862 | 21449 ft | 417 kts | 221° |
| 2026-04-22 12:00 | 55.08203 | 12.04476 | 21937 ft | 420 kts | 221° |
| 2026-04-22 12:00 | 55.06014 | 12.01063 | 22419 ft | 423 kts | 221° |
| 2026-04-22 12:01 | 55.03810 | 11.97633 | 22895 ft | 426 kts | 221° |
| 2026-04-22 12:01 | 55.01586 | 11.94180 | 23358 ft | 429 kts | 221° |
| 2026-04-22 12:01 | 54.99352 | 11.90710 | 23816 ft | 432 kts | 221° |
| 2026-04-22 12:01 | 54.97106 | 11.87220 | 24197 ft | 435 kts | 221° |
| 2026-04-22 12:02 | 54.94839 | 11.83703 | 24583 ft | 437 kts | 221° |
| 2026-04-22 12:02 | 54.92559 | 11.80177 | 24963 ft | 440 kts | 221° |
| 2026-04-22 12:02 | 54.90261 | 11.76638 | 25336 ft | 443 kts | 221° |
| 2026-04-22 12:02 | 54.87949 | 11.73085 | 25707 ft | 445 kts | 221° |
| 2026-04-22 12:03 | 54.85625 | 11.69517 | 26075 ft | 448 kts | 220° |
| 2026-04-22 12:03 | 54.83287 | 11.65927 | 26436 ft | 450 kts | 220° |
| 2026-04-22 12:03 | 54.80917 | 11.62365 | 26798 ft | 452 kts | 217° |
| 2026-04-22 12:03 | 54.78376 | 11.59136 | 27141 ft | 454 kts | 214° |
| 2026-04-22 12:04 | 54.75805 | 11.55925 | 27503 ft | 456 kts | 214° |
| 2026-04-22 12:04 | 54.73224 | 11.52708 | 27848 ft | 459 kts | 214° |
| 2026-04-22 12:04 | 54.70624 | 11.49474 | 28217 ft | 461 kts | 214° |
| 2026-04-22 12:04 | 54.68016 | 11.46236 | 28586 ft | 463 kts | 214° |
| 2026-04-22 12:05 | 54.65397 | 11.42984 | 28925 ft | 465 kts | 214° |
| 2026-04-22 12:05 | 54.62765 | 11.39719 | 29256 ft | 467 kts | 214° |
| 2026-04-22 12:05 | 54.60122 | 11.36452 | 29571 ft | 469 kts | 214° |
| 2026-04-22 12:05 | 54.57458 | 11.33173 | 29810 ft | 472 kts | 214° |
| 2026-04-22 12:06 | 54.54778 | 11.29876 | 30077 ft | 475 kts | 214° |
| 2026-04-22 12:06 | 54.52079 | 11.26570 | 30370 ft | 477 kts | 214° |
| 2026-04-22 12:06 | 54.49366 | 11.23264 | 30626 ft | 479 kts | 214° |
| 2026-04-22 12:06 | 54.46636 | 11.19949 | 30903 ft | 481 kts | 214° |
| 2026-04-22 12:07 | 54.43905 | 11.16644 | 31285 ft | 480 kts | 214° |
| 2026-04-22 12:07 | 54.41175 | 11.13347 | 31648 ft | 479 kts | 214° |
| 2026-04-22 12:07 | 54.38449 | 11.10055 | 32003 ft | 479 kts | 214° |
| 2026-04-22 12:07 | 54.35728 | 11.06767 | 32360 ft | 479 kts | 214° |
| 2026-04-22 12:08 | 54.33004 | 11.03479 | 32705 ft | 479 kts | 214° |
| 2026-04-22 12:08 | 54.30187 | 11.00445 | 33039 ft | 477 kts | 206° |
| 2026-04-22 12:08 | 54.27181 | 10.98075 | 33371 ft | 475 kts | 200° |
| 2026-04-22 12:08 | 54.24132 | 10.95890 | 33739 ft | 475 kts | 201° |
| 2026-04-22 12:09 | 54.21089 | 10.93698 | 34082 ft | 474 kts | 201° |
| 2026-04-22 12:09 | 54.18053 | 10.91502 | 34422 ft | 474 kts | 201° |
| 2026-04-22 12:09 | 54.15017 | 10.89302 | 34694 ft | 474 kts | 201° |
| 2026-04-22 12:09 | 54.11982 | 10.87112 | 34961 ft | 474 kts | 201° |
| 2026-04-22 12:10 | 54.08950 | 10.84935 | 35222 ft | 474 kts | 201° |
| 2026-04-22 12:10 | 54.05910 | 10.82755 | 35469 ft | 474 kts | 200° |
| 2026-04-22 12:10 | 54.02875 | 10.80585 | 35715 ft | 474 kts | 201° |
| 2026-04-22 12:10 | 53.99834 | 10.78410 | 35964 ft | 474 kts | 201° |
| 2026-04-22 12:11 | 53.96797 | 10.76237 | 36200 ft | 474 kts | 201° |
| 2026-04-22 12:11 | 53.93758 | 10.74066 | 36350 ft | 474 kts | 201° |
| 2026-04-22 12:11 | 53.87702 | 10.69753 | 36387 ft | 471 kts | 201° |
| 2026-04-22 12:12 | 53.81659 | 10.65479 | 36379 ft | 470 kts | 201° |
| 2026-04-22 12:12 | 53.75619 | 10.61224 | 36385 ft | 470 kts | 201° |
| 2026-04-22 12:13 | 53.69584 | 10.56965 | 36376 ft | 470 kts | 201° |
| 2026-04-22 12:13 | 53.63556 | 10.52722 | 36375 ft | 470 kts | 201° |
| 2026-04-22 12:14 | 53.57513 | 10.48494 | 36370 ft | 470 kts | 201° |
| 2026-04-22 12:14 | 53.51507 | 10.44312 | 36368 ft | 470 kts | 201° |
| 2026-04-22 12:15 | 53.45464 | 10.40112 | 36368 ft | 470 kts | 201° |
| 2026-04-22 12:15 | 53.39380 | 10.35875 | 36380 ft | 470 kts | 201° |
| 2026-04-22 12:16 | 53.33341 | 10.31692 | 36339 ft | 470 kts | 201° |
| 2026-04-22 12:16 | 53.27287 | 10.27538 | 36378 ft | 470 kts | 201° |
| 2026-04-22 12:17 | 53.21289 | 10.23429 | 36387 ft | 469 kts | 201° |
| 2026-04-22 12:17 | 53.15206 | 10.19260 | 36379 ft | 478 kts | 201° |
| 2026-04-22 12:18 | 53.09016 | 10.15019 | 36386 ft | 483 kts | 201° |
| 2026-04-22 12:18 | 53.02798 | 10.10778 | 36381 ft | 483 kts | 201° |
| 2026-04-22 12:19 | 52.96576 | 10.06565 | 36386 ft | 483 kts | 201° |
| 2026-04-22 12:19 | 52.90351 | 10.02362 | 36378 ft | 483 kts | 201° |
| 2026-04-22 12:20 | 52.84123 | 9.98155 | 36392 ft | 484 kts | 201° |
| 2026-04-22 12:20 | 52.77889 | 9.93957 | 36390 ft | 484 kts | 201° |
| 2026-04-22 12:21 | 52.71654 | 9.89775 | 36389 ft | 484 kts | 201° |
| 2026-04-22 12:21 | 52.65408 | 9.85605 | 36402 ft | 484 kts | 201° |
| 2026-04-22 12:22 | 52.59167 | 9.81448 | 36408 ft | 484 kts | 201° |
| 2026-04-22 12:22 | 52.52922 | 9.77300 | 36404 ft | 484 kts | 201° |
| 2026-04-22 12:23 | 52.46675 | 9.73171 | 36403 ft | 484 kts | 201° |
| 2026-04-22 12:23 | 52.40424 | 9.69044 | 36401 ft | 484 kts | 201° |
| 2026-04-22 12:24 | 52.34174 | 9.64928 | 36397 ft | 484 kts | 201° |
| 2026-04-22 12:24 | 52.27922 | 9.60815 | 36412 ft | 484 kts | 201° |
| 2026-04-22 12:25 | 52.21668 | 9.56716 | 36409 ft | 484 kts | 201° |
| 2026-04-22 12:25 | 52.15412 | 9.52638 | 36405 ft | 484 kts | 201° |
| 2026-04-22 12:26 | 52.09150 | 9.48578 | 36396 ft | 484 kts | 201° |
| 2026-04-22 12:26 | 52.02890 | 9.44522 | 36394 ft | 484 kts | 201° |
| 2026-04-22 12:27 | 51.96624 | 9.40475 | 36391 ft | 485 kts | 201° |
| 2026-04-22 12:27 | 51.90360 | 9.36441 | 36386 ft | 485 kts | 201° |
| 2026-04-22 12:28 | 51.84092 | 9.32414 | 36390 ft | 485 kts | 201° |
| 2026-04-22 12:28 | 51.77826 | 9.28397 | 36385 ft | 485 kts | 201° |
| 2026-04-22 12:29 | 51.71555 | 9.24396 | 36383 ft | 485 kts | 201° |
| 2026-04-22 12:29 | 51.65277 | 9.20407 | 36384 ft | 485 kts | 201° |
| 2026-04-22 12:30 | 51.55861 | 9.14446 | 36382 ft | 485 kts | 201° |
| 2026-04-22 12:31 | 51.49522 | 9.10755 | 36379 ft | 484 kts | 192° |
| 2026-04-22 12:31 | 51.42931 | 9.08500 | 36381 ft | 484 kts | 191° |
| 2026-04-22 12:32 | 51.36342 | 9.06259 | 36374 ft | 484 kts | 191° |
| 2026-04-22 12:32 | 51.26410 | 9.03263 | 36371 ft | 484 kts | 186° |
| 2026-04-22 12:33 | 51.19719 | 9.02043 | 36374 ft | 484 kts | 185° |
| 2026-04-22 12:33 | 51.13025 | 9.00931 | 36373 ft | 484 kts | 185° |
| 2026-04-22 12:34 | 51.06336 | 8.99652 | 36370 ft | 484 kts | 186° |
| 2026-04-22 12:34 | 50.99658 | 8.98273 | 36370 ft | 484 kts | 186° |
| 2026-04-22 12:35 | 50.92969 | 8.96916 | 36368 ft | 484 kts | 186° |
| 2026-04-22 12:35 | 50.86281 | 8.95605 | 36367 ft | 485 kts | 186° |
| 2026-04-22 12:36 | 50.80718 | 8.94518 | 36365 ft | 485 kts | 186° |
| 2026-04-22 12:36 | 50.74024 | 8.93209 | 36366 ft | 485 kts | 186° |
| 2026-04-22 12:37 | 50.67332 | 8.91894 | 36359 ft | 485 kts | 186° |
| 2026-04-22 12:37 | 50.60641 | 8.90592 | 36358 ft | 485 kts | 186° |
| 2026-04-22 12:38 | 50.53941 | 8.89295 | 36358 ft | 485 kts | 186° |
| 2026-04-22 12:38 | 50.47245 | 8.87995 | 36357 ft | 485 kts | 186° |
| 2026-04-22 12:39 | 50.37193 | 8.86057 | 36347 ft | 485 kts | 186° |
| 2026-04-22 12:40 | 50.30497 | 8.84788 | 36343 ft | 485 kts | 187° |
| 2026-04-22 12:40 | 50.23792 | 8.83500 | 36340 ft | 485 kts | 187° |
| 2026-04-22 12:41 | 50.17085 | 8.82196 | 36340 ft | 486 kts | 187° |
| 2026-04-22 12:41 | 50.10381 | 8.80919 | 36341 ft | 486 kts | 187° |
| 2026-04-22 12:42 | 50.03672 | 8.79638 | 36339 ft | 486 kts | 187° |
| 2026-04-22 12:42 | 49.96969 | 8.78271 | 36337 ft | 486 kts | 188° |
| 2026-04-22 12:43 | 49.90277 | 8.76841 | 36322 ft | 486 kts | 188° |
| 2026-04-22 12:43 | 49.83572 | 8.75424 | 36319 ft | 486 kts | 188° |
| 2026-04-22 12:44 | 49.76869 | 8.74043 | 36321 ft | 486 kts | 188° |
| 2026-04-22 12:44 | 49.70159 | 8.72674 | 36326 ft | 487 kts | 188° |
| 2026-04-22 12:45 | 49.63445 | 8.71313 | 36328 ft | 487 kts | 188° |
| 2026-04-22 12:45 | 49.56723 | 8.69963 | 36331 ft | 487 kts | 188° |
| 2026-04-22 12:46 | 49.49998 | 8.68616 | 36335 ft | 487 kts | 188° |
| 2026-04-22 12:46 | 49.43273 | 8.67260 | 36337 ft | 487 kts | 188° |
| 2026-04-22 12:47 | 49.36546 | 8.65900 | 36325 ft | 488 kts | 188° |
| 2026-04-22 12:47 | 49.29765 | 8.64533 | 36320 ft | 488 kts | 188° |
| 2026-04-22 12:48 | 49.23034 | 8.63170 | 36312 ft | 489 kts | 188° |
| 2026-04-22 12:48 | 49.16284 | 8.61809 | 36292 ft | 489 kts | 189° |
| 2026-04-22 12:49 | 49.09539 | 8.60465 | 36287 ft | 489 kts | 189° |
| 2026-04-22 12:49 | 49.02792 | 8.59129 | 36287 ft | 489 kts | 189° |
| 2026-04-22 12:50 | 48.96051 | 8.57628 | 36274 ft | 488 kts | 192° |
| 2026-04-22 12:50 | 48.89411 | 8.55477 | 36278 ft | 488 kts | 195° |
| 2026-04-22 12:51 | 48.82800 | 8.53119 | 36270 ft | 488 kts | 195° |
| 2026-04-22 12:51 | 48.76173 | 8.50887 | 36267 ft | 488 kts | 194° |
| 2026-04-22 12:52 | 48.69512 | 8.48769 | 36263 ft | 489 kts | 194° |
| 2026-04-22 12:52 | 48.62854 | 8.46678 | 36268 ft | 489 kts | 194° |
| 2026-04-22 12:52 | 48.59526 | 8.45623 | 36434 ft | 488 kts | 194° |
| 2026-04-22 12:53 | 48.56206 | 8.44562 | 36659 ft | 488 kts | 194° |
| 2026-04-22 12:53 | 48.52881 | 8.43495 | 36856 ft | 488 kts | 194° |
| 2026-04-22 12:53 | 48.49561 | 8.42429 | 37061 ft | 488 kts | 194° |
| 2026-04-22 12:53 | 48.46233 | 8.41368 | 37220 ft | 489 kts | 194° |
| 2026-04-22 12:54 | 48.42904 | 8.40311 | 37243 ft | 489 kts | 194° |
| 2026-04-22 12:54 | 48.36243 | 8.38206 | 37242 ft | 489 kts | 194° |
| 2026-04-22 12:55 | 48.29590 | 8.36097 | 37230 ft | 489 kts | 194° |
| 2026-04-22 12:55 | 48.22928 | 8.33991 | 37226 ft | 489 kts | 194° |
| 2026-04-22 12:56 | 48.16440 | 8.31162 | 37227 ft | 483 kts | 208° |
| 2026-04-22 12:56 | 48.10714 | 8.26043 | 37220 ft | 479 kts | 217° |
| 2026-04-22 12:57 | 48.05118 | 8.20633 | 37222 ft | 479 kts | 217° |
| 2026-04-22 12:57 | 47.99504 | 8.15244 | 37217 ft | 480 kts | 216° |
| 2026-04-22 12:58 | 47.93885 | 8.09872 | 37200 ft | 480 kts | 216° |
| 2026-04-22 12:58 | 47.88272 | 8.04504 | 37212 ft | 479 kts | 217° |
| 2026-04-22 12:59 | 47.82657 | 7.99139 | 37214 ft | 479 kts | 217° |
| 2026-04-22 12:59 | 47.77043 | 7.93791 | 37214 ft | 479 kts | 217° |
| 2026-04-22 13:00 | 47.71423 | 7.88458 | 37204 ft | 479 kts | 217° |
| 2026-04-22 13:00 | 47.65804 | 7.83146 | 37209 ft | 479 kts | 217° |
| 2026-04-22 13:01 | 47.60183 | 7.77840 | 37209 ft | 479 kts | 217° |
| 2026-04-22 13:01 | 47.54570 | 7.72546 | 37210 ft | 478 kts | 217° |
| 2026-04-22 13:02 | 47.48989 | 7.67296 | 37218 ft | 478 kts | 217° |
| 2026-04-22 13:02 | 47.43336 | 7.62007 | 37208 ft | 478 kts | 217° |
| 2026-04-22 13:03 | 47.37722 | 7.56769 | 37193 ft | 477 kts | 217° |
| 2026-04-22 13:03 | 47.32116 | 7.51548 | 37194 ft | 476 kts | 218° |
| 2026-04-22 13:04 | 47.26513 | 7.46331 | 37187 ft | 476 kts | 217° |
| 2026-04-22 13:04 | 47.20912 | 7.41139 | 37173 ft | 475 kts | 218° |
| 2026-04-22 13:05 | 47.15711 | 7.35359 | 37178 ft | 462 kts | 232° |
| 2026-04-22 13:05 | 47.11668 | 7.28143 | 37177 ft | 456 kts | 238° |
| 2026-04-22 13:06 | 47.07717 | 7.20859 | 37160 ft | 456 kts | 238° |
| 2026-04-22 13:06 | 47.03756 | 7.13590 | 37156 ft | 456 kts | 238° |
| 2026-04-22 13:07 | 46.99797 | 7.06334 | 37153 ft | 456 kts | 238° |
| 2026-04-22 13:07 | 46.95830 | 6.99089 | 37128 ft | 456 kts | 238° |
| 2026-04-22 13:08 | 46.91843 | 6.91894 | 37134 ft | 457 kts | 234° |
| 2026-04-22 13:08 | 46.87024 | 6.85661 | 37157 ft | 465 kts | 226° |
| 2026-04-22 13:09 | 46.82013 | 6.79693 | 37160 ft | 465 kts | 225° |
| 2026-04-22 13:09 | 46.76997 | 6.73736 | 37142 ft | 465 kts | 225° |
| 2026-04-22 13:10 | 46.71986 | 6.67801 | 37141 ft | 463 kts | 226° |
| 2026-04-22 13:10 | 46.66986 | 6.61885 | 37147 ft | 463 kts | 226° |
| 2026-04-22 13:11 | 46.61989 | 6.55974 | 37139 ft | 463 kts | 226° |
| 2026-04-22 13:11 | 46.56990 | 6.50088 | 37138 ft | 462 kts | 225° |
| 2026-04-22 13:12 | 46.51988 | 6.44217 | 37112 ft | 462 kts | 225° |
| 2026-04-22 13:12 | 46.46992 | 6.38360 | 37125 ft | 462 kts | 225° |
| 2026-04-22 13:13 | 46.41988 | 6.32517 | 37131 ft | 462 kts | 225° |
| 2026-04-22 13:13 | 46.36990 | 6.26691 | 37135 ft | 461 kts | 225° |
| 2026-04-22 13:14 | 46.31987 | 6.20879 | 37152 ft | 461 kts | 225° |
| 2026-04-22 13:14 | 46.26830 | 6.15323 | 37155 ft | 469 kts | 216° |
| 2026-04-22 13:14 | 46.23845 | 6.13345 | 37156 ft | 478 kts | 205° |
| 2026-04-22 13:15 | 46.21712 | 6.12459 | 37155 ft | 483 kts | 197° |
| 2026-04-22 13:15 | 46.13947 | 6.10685 | 37147 ft | 486 kts | 194° |
| 2026-04-22 13:16 | 46.08346 | 6.09436 | 37122 ft | 486 kts | 194° |
| 2026-04-22 13:16 | 46.01661 | 6.07941 | 37128 ft | 486 kts | 194° |
| 2026-04-22 13:17 | 45.94984 | 6.06464 | 37128 ft | 485 kts | 194° |
| 2026-04-22 13:17 | 45.88323 | 6.05001 | 37134 ft | 484 kts | 194° |
| 2026-04-22 13:18 | 45.81670 | 6.03539 | 37130 ft | 483 kts | 194° |
| 2026-04-22 13:18 | 45.75026 | 6.02077 | 37120 ft | 482 kts | 194° |
| 2026-04-22 13:19 | 45.68395 | 6.00622 | 37128 ft | 481 kts | 194° |
| 2026-04-22 13:19 | 45.61783 | 5.99173 | 37132 ft | 481 kts | 194° |
| 2026-04-22 13:20 | 45.55181 | 5.97721 | 37121 ft | 480 kts | 194° |
| 2026-04-22 13:20 | 45.48588 | 5.96268 | 37122 ft | 479 kts | 194° |
| 2026-04-22 13:21 | 45.42059 | 5.94544 | 37093 ft | 476 kts | 198° |
| 2026-04-22 13:21 | 45.35620 | 5.92414 | 37101 ft | 474 kts | 199° |
| 2026-04-22 13:22 | 45.29201 | 5.90267 | 37096 ft | 474 kts | 198° |
| 2026-04-22 13:22 | 45.22764 | 5.88234 | 37081 ft | 474 kts | 197° |
| 2026-04-22 13:23 | 45.16313 | 5.86266 | 37084 ft | 474 kts | 197° |
| 2026-04-22 13:23 | 45.09865 | 5.84296 | 37084 ft | 474 kts | 197° |
| 2026-04-22 13:24 | 45.03428 | 5.82310 | 37064 ft | 473 kts | 197° |
| 2026-04-22 13:24 | 44.97003 | 5.80323 | 37070 ft | 473 kts | 197° |
| 2026-04-22 13:25 | 44.90623 | 5.78352 | 37076 ft | 473 kts | 197° |
| 2026-04-22 13:25 | 44.84149 | 5.76364 | 37057 ft | 473 kts | 197° |
| 2026-04-22 13:26 | 44.77763 | 5.74413 | 37072 ft | 473 kts | 197° |
| 2026-04-22 13:26 | 44.71293 | 5.72435 | 37077 ft | 472 kts | 197° |
| 2026-04-22 13:27 | 44.64909 | 5.70490 | 37065 ft | 473 kts | 197° |
| 2026-04-22 13:27 | 44.58436 | 5.68522 | 37071 ft | 473 kts | 197° |
| 2026-04-22 13:28 | 44.51985 | 5.66574 | 37084 ft | 474 kts | 197° |
| 2026-04-22 13:28 | 44.45527 | 5.64632 | 37080 ft | 474 kts | 197° |
| 2026-04-22 13:29 | 44.39084 | 5.62677 | 37096 ft | 473 kts | 199° |
| 2026-04-22 13:29 | 44.32952 | 5.59584 | 37102 ft | 468 kts | 206° |
| 2026-04-22 13:30 | 44.26895 | 5.56245 | 37098 ft | 468 kts | 206° |
| 2026-04-22 13:30 | 44.20868 | 5.52958 | 37104 ft | 468 kts | 206° |
| 2026-04-22 13:31 | 44.14762 | 5.49633 | 37113 ft | 468 kts | 206° |
| 2026-04-22 13:31 | 44.08699 | 5.46328 | 37106 ft | 468 kts | 206° |
| 2026-04-22 13:32 | 44.02632 | 5.43040 | 37112 ft | 468 kts | 206° |
| 2026-04-22 13:32 | 43.96557 | 5.39752 | 37124 ft | 469 kts | 206° |
| 2026-04-22 13:33 | 43.90481 | 5.36464 | 37118 ft | 468 kts | 206° |
| 2026-04-22 13:33 | 43.84424 | 5.33187 | 37076 ft | 467 kts | 205° |
| 2026-04-22 13:34 | 43.78361 | 5.29921 | 37086 ft | 469 kts | 205° |
| 2026-04-22 13:34 | 43.72290 | 5.26651 | 37088 ft | 468 kts | 205° |
| 2026-04-22 13:35 | 43.66207 | 5.23387 | 37083 ft | 469 kts | 205° |
| 2026-04-22 13:35 | 43.60118 | 5.20137 | 37106 ft | 469 kts | 205° |
| 2026-04-22 13:36 | 43.54030 | 5.16881 | 37080 ft | 469 kts | 205° |
| 2026-04-22 13:36 | 43.47936 | 5.13629 | 37080 ft | 470 kts | 205° |
| 2026-04-22 13:37 | 43.41835 | 5.10387 | 37084 ft | 470 kts | 205° |
| 2026-04-22 13:37 | 43.36093 | 5.06310 | 37084 ft | 462 kts | 219° |
| 2026-04-22 13:38 | 43.30806 | 5.01303 | 37069 ft | 462 kts | 219° |
| 2026-04-22 13:38 | 43.22856 | 4.93812 | 37064 ft | 462 kts | 219° |
| 2026-04-22 13:39 | 43.17537 | 4.88821 | 37062 ft | 464 kts | 219° |
| 2026-04-22 13:39 | 43.12195 | 4.83830 | 37054 ft | 465 kts | 219° |
| 2026-04-22 13:40 | 43.06842 | 4.78838 | 37067 ft | 466 kts | 219° |
| 2026-04-22 13:40 | 43.01218 | 4.74338 | 37079 ft | 470 kts | 213° |
| 2026-04-22 13:41 | 42.95230 | 4.70675 | 37080 ft | 474 kts | 206° |
| 2026-04-22 13:41 | 42.89096 | 4.67340 | 37073 ft | 475 kts | 206° |
| 2026-04-22 13:42 | 42.82956 | 4.64028 | 37081 ft | 475 kts | 206° |
| 2026-04-22 13:42 | 42.76818 | 4.60708 | 37079 ft | 475 kts | 206° |
| 2026-04-22 13:43 | 42.70721 | 4.57399 | 37070 ft | 475 kts | 206° |
| 2026-04-22 13:43 | 42.64569 | 4.54075 | 37056 ft | 476 kts | 206° |
| 2026-04-22 13:44 | 42.58405 | 4.50759 | 37053 ft | 477 kts | 206° |
| 2026-04-22 13:44 | 42.52232 | 4.47446 | 37046 ft | 477 kts | 206° |
| 2026-04-22 13:45 | 42.46049 | 4.44136 | 37052 ft | 478 kts | 206° |
| 2026-04-22 13:45 | 42.39856 | 4.40834 | 37054 ft | 479 kts | 206° |
| 2026-04-22 13:46 | 42.33659 | 4.37530 | 37054 ft | 479 kts | 206° |
| 2026-04-22 13:46 | 42.27463 | 4.34225 | 37059 ft | 479 kts | 206° |
| 2026-04-22 13:47 | 42.21258 | 4.30924 | 37059 ft | 479 kts | 206° |
| 2026-04-22 13:47 | 42.15052 | 4.27638 | 37053 ft | 479 kts | 206° |
| 2026-04-22 13:48 | 42.08838 | 4.24357 | 37048 ft | 480 kts | 206° |
| 2026-04-22 13:48 | 42.02613 | 4.21076 | 37054 ft | 481 kts | 206° |
| 2026-04-22 13:49 | 41.96383 | 4.17799 | 37049 ft | 481 kts | 206° |
| 2026-04-22 13:49 | 41.90156 | 4.14520 | 37038 ft | 481 kts | 206° |
| 2026-04-22 13:50 | 41.83928 | 4.11253 | 37045 ft | 481 kts | 206° |
| 2026-04-22 13:50 | 41.77691 | 4.07996 | 37047 ft | 480 kts | 206° |
| 2026-04-22 13:51 | 41.71468 | 4.04737 | 37051 ft | 480 kts | 206° |
| 2026-04-22 13:51 | 41.65245 | 4.01487 | 37044 ft | 480 kts | 206° |
| 2026-04-22 13:52 | 41.59021 | 3.98248 | 37045 ft | 480 kts | 206° |
| 2026-04-22 13:52 | 41.52794 | 3.95017 | 37045 ft | 480 kts | 206° |
| 2026-04-22 13:53 | 41.46568 | 3.91788 | 37040 ft | 480 kts | 205° |
| 2026-04-22 13:53 | 41.40338 | 3.88560 | 37046 ft | 480 kts | 205° |
| 2026-04-22 13:54 | 41.34112 | 3.85348 | 37045 ft | 480 kts | 205° |
| 2026-04-22 13:54 | 41.27880 | 3.82148 | 37033 ft | 480 kts | 205° |
| 2026-04-22 13:55 | 41.21718 | 3.78987 | 37032 ft | 469 kts | 205° |
| 2026-04-22 13:55 | 41.18690 | 3.77436 | 36842 ft | 465 kts | 205° |
| 2026-04-22 13:55 | 41.15674 | 3.75890 | 36230 ft | 464 kts | 205° |
| 2026-04-22 13:56 | 41.12663 | 3.74341 | 35607 ft | 464 kts | 206° |
| 2026-04-22 13:56 | 41.09651 | 3.72785 | 34997 ft | 464 kts | 206° |
| 2026-04-22 13:56 | 41.06645 | 3.71226 | 34379 ft | 464 kts | 206° |
| 2026-04-22 13:56 | 41.03637 | 3.69669 | 33732 ft | 464 kts | 206° |
| 2026-04-22 13:57 | 41.00629 | 3.68119 | 33021 ft | 464 kts | 205° |
| 2026-04-22 13:57 | 40.97619 | 3.66570 | 32309 ft | 464 kts | 205° |
| 2026-04-22 13:57 | 40.94610 | 3.65027 | 31726 ft | 462 kts | 205° |
| 2026-04-22 13:57 | 40.92637 | 3.64019 | 31397 ft | 458 kts | 205° |
| 2026-04-22 13:58 | 40.89678 | 3.62510 | 30885 ft | 454 kts | 205° |
| 2026-04-22 13:58 | 40.86745 | 3.61011 | 30379 ft | 449 kts | 205° |
| 2026-04-22 13:58 | 40.82912 | 3.59050 | 29653 ft | 443 kts | 205° |
| 2026-04-22 13:58 | 40.80052 | 3.57590 | 29079 ft | 439 kts | 205° |
| 2026-04-22 13:59 | 40.77218 | 3.56138 | 28523 ft | 435 kts | 205° |
| 2026-04-22 13:59 | 40.75318 | 3.55164 | 28147 ft | 432 kts | 205° |
| 2026-04-22 13:59 | 40.72529 | 3.53737 | 27595 ft | 428 kts | 205° |
| 2026-04-22 13:59 | 40.69766 | 3.52340 | 27068 ft | 424 kts | 204° |
| 2026-04-22 14:00 | 40.66981 | 3.51019 | 26300 ft | 427 kts | 202° |
| 2026-04-22 14:00 | 40.64176 | 3.49766 | 25685 ft | 425 kts | 202° |
| 2026-04-22 14:00 | 40.61373 | 3.48553 | 25143 ft | 422 kts | 201° |
| 2026-04-22 14:00 | 40.58592 | 3.47361 | 24623 ft | 418 kts | 201° |
| 2026-04-22 14:01 | 40.55842 | 3.46175 | 24109 ft | 414 kts | 202° |
| 2026-04-22 14:01 | 40.53120 | 3.44984 | 23589 ft | 410 kts | 202° |
| 2026-04-22 14:01 | 40.50426 | 3.43791 | 22991 ft | 406 kts | 202° |
| 2026-04-22 14:01 | 40.47763 | 3.42601 | 22409 ft | 402 kts | 202° |
| 2026-04-22 14:02 | 40.45124 | 3.41418 | 21838 ft | 398 kts | 202° |
| 2026-04-22 14:02 | 40.42500 | 3.40245 | 21124 ft | 398 kts | 202° |
| 2026-04-22 14:02 | 40.39885 | 3.39078 | 20522 ft | 396 kts | 202° |
| 2026-04-22 14:02 | 40.37286 | 3.37920 | 19967 ft | 393 kts | 202° |
| 2026-04-22 14:03 | 40.34716 | 3.36775 | 19427 ft | 389 kts | 202° |
| 2026-04-22 14:03 | 40.32158 | 3.35644 | 18896 ft | 386 kts | 202° |
| 2026-04-22 14:03 | 40.29628 | 3.34528 | 18399 ft | 382 kts | 202° |
| 2026-04-22 14:03 | 40.27121 | 3.33423 | 17837 ft | 379 kts | 202° |
| 2026-04-22 14:04 | 40.24629 | 3.32320 | 17268 ft | 376 kts | 202° |
| 2026-04-22 14:04 | 40.22158 | 3.31228 | 16698 ft | 374 kts | 202° |
| 2026-04-22 14:04 | 40.19694 | 3.30143 | 16142 ft | 372 kts | 202° |
| 2026-04-22 14:04 | 40.17235 | 3.29060 | 15481 ft | 374 kts | 202° |
| 2026-04-22 14:05 | 40.14770 | 3.27972 | 14902 ft | 373 kts | 202° |
| 2026-04-22 14:05 | 40.12313 | 3.26890 | 14369 ft | 372 kts | 202° |
| 2026-04-22 14:05 | 40.07429 | 3.24744 | 13270 ft | 369 kts | 202° |
| 2026-04-22 14:06 | 40.05003 | 3.23679 | 12730 ft | 367 kts | 202° |
| 2026-04-22 14:06 | 40.02598 | 3.22625 | 12145 ft | 363 kts | 202° |
| 2026-04-22 14:06 | 40.00213 | 3.21577 | 11478 ft | 361 kts | 202° |
| 2026-04-22 14:06 | 39.97844 | 3.20534 | 10829 ft | 358 kts | 201° |
| 2026-04-22 14:07 | 39.95491 | 3.19497 | 10189 ft | 356 kts | 201° |
| 2026-04-22 14:07 | 39.93152 | 3.18468 | 9565 ft | 354 kts | 201° |
| 2026-04-22 14:07 | 39.90830 | 3.17450 | 8920 ft | 350 kts | 201° |
| 2026-04-22 14:07 | 39.88527 | 3.16443 | 8499 ft | 345 kts | 201° |
| 2026-04-22 14:08 | 39.86286 | 3.15466 | 8246 ft | 335 kts | 201° |
| 2026-04-22 14:08 | 39.84150 | 3.14538 | 7985 ft | 310 kts | 201° |
| 2026-04-22 14:08 | 39.82174 | 3.13684 | 7740 ft | 291 kts | 201° |
| 2026-04-22 14:08 | 39.80300 | 3.12873 | 7326 ft | 280 kts | 201° |
| 2026-04-22 14:09 | 39.78452 | 3.12068 | 6987 ft | 278 kts | 201° |
| 2026-04-22 14:09 | 39.76626 | 3.11270 | 6659 ft | 276 kts | 201° |
| 2026-04-22 14:09 | 39.74814 | 3.10477 | 6301 ft | 274 kts | 200° |
| 2026-04-22 14:09 | 39.73030 | 3.09698 | 6088 ft | 265 kts | 200° |
| 2026-04-22 14:10 | 39.71382 | 3.08739 | 5842 ft | 257 kts | 217° |
| 2026-04-22 14:10 | 39.70129 | 3.07178 | 5535 ft | 252 kts | 236° |
| 2026-04-22 14:10 | 39.69229 | 3.05289 | 5215 ft | 238 kts | 240° |
| 2026-04-22 14:10 | 39.68394 | 3.03507 | 4824 ft | 225 kts | 240° |
| 2026-04-22 14:11 | 39.67597 | 3.01807 | 4464 ft | 219 kts | 239° |
| 2026-04-22 14:11 | 39.66809 | 3.00124 | 4159 ft | 217 kts | 239° |
| 2026-04-22 14:11 | 39.66029 | 2.98460 | 3869 ft | 215 kts | 239° |
| 2026-04-22 14:11 | 39.65256 | 2.96811 | 3584 ft | 213 kts | 239° |
| 2026-04-22 14:12 | 39.64500 | 2.95201 | 3339 ft | 203 kts | 239° |
| 2026-04-22 14:12 | 39.63782 | 2.93671 | 3061 ft | 194 kts | 239° |
| 2026-04-22 14:12 | 39.63094 | 2.92206 | 2810 ft | 187 kts | 239° |
| 2026-04-22 14:12 | 39.62436 | 2.90806 | 2587 ft | 175 kts | 239° |
| 2026-04-22 14:13 | 39.61799 | 2.89451 | 2333 ft | 176 kts | 238° |
| 2026-04-22 14:13 | 39.61170 | 2.88113 | 2098 ft | 170 kts | 238° |
| 2026-04-22 14:13 | 39.60565 | 2.86829 | 1869 ft | 166 kts | 238° |
| 2026-04-22 14:13 | 39.59974 | 2.85572 | 1678 ft | 156 kts | 238° |
| 2026-04-22 14:14 | 39.59431 | 2.84420 | 1453 ft | 145 kts | 238° |
| 2026-04-22 14:14 | 39.58910 | 2.83314 | 1278 ft | 143 kts | 238° |
| 2026-04-22 14:14 | 39.58400 | 2.82232 | 1097 ft | 140 kts | 238° |
| 2026-04-22 14:14 | 39.57896 | 2.81164 | 922 ft | 139 kts | 237° |
| 2026-04-22 14:15 | 39.57391 | 2.80093 | 727 ft | 138 kts | 238° |
| 2026-04-22 14:15 | 39.56895 | 2.79051 | 548 ft | 135 kts | 238° |
| 2026-04-22 14:15 | 39.56406 | 2.78005 | 360 ft | 136 kts | 238° |
| 2026-04-22 14:15 | 39.55917 | 2.76968 | 212 ft | 134 kts | 238° |
| 2026-04-22 14:16 | 39.55432 | 2.75935 | 48 ft | 133 kts | 239° |
| 2026-04-22 14:16 | 39.55000 | 2.75016 | 38 ft | 98 kts | 238° |
| 2026-04-22 14:16 | 39.54743 | 2.74476 | 37 ft | 46 kts | 238° |
| 2026-04-22 14:16 | 39.54623 | 2.74222 | 37 ft | 28 kts | 238° |
| 2026-04-22 14:17 | 39.54555 | 2.74006 | 38 ft | 25 kts | 262° |
| 2026-04-22 14:17 | 39.54550 | 2.73805 | 38 ft | 16 kts | 270° |
| 2026-04-22 14:17 | 39.54588 | 2.73726 | 38 ft | 10 kts | 4° |
| 2026-04-22 14:17 | 39.54629 | 2.73789 | 38 ft | 9 kts | 58° |
| 2026-04-22 14:18 | 39.54660 | 2.73854 | 38 ft | 8 kts | 58° |
| 2026-04-22 14:18 | 39.54700 | 2.73937 | 38 ft | 13 kts | 56° |
| 2026-04-22 14:18 | 39.54762 | 2.73942 | 38 ft | 9 kts | 339° |
| 2026-04-22 14:18 | 39.54807 | 2.73976 | 38 ft | 7 kts | 53° |
| 2026-04-22 14:19 | 39.54860 | 2.73985 | 38 ft | 10 kts | 340° |
| 2026-04-22 14:19 | 39.54938 | 2.73928 | 38 ft | 15 kts | 329° |
| 2026-04-22 14:19 | 39.55026 | 2.73860 | 38 ft | 15 kts | 329° |
| 2026-04-22 14:19 | 39.55113 | 2.73793 | 38 ft | 14 kts | 329° |
| 2026-04-22 14:20 | 39.55141 | 2.73616 | 38 ft | 12 kts | 238° |
| 2026-04-22 14:20 | 39.55101 | 2.73568 | 38 ft | 6 kts | 184° |
| 2026-04-22 14:20 | 39.55073 | 2.73577 | 38 ft | 2 kts | 163° |
| 2026-04-22 14:21 | 39.55066 | 2.73580 | 35 ft | 0 kts | 164° |